Atqasuk, Alaska
Current Conditions -  °F | °C
As of 5:53 PM on Tuesday 21 Oct 2014 (Local Time) from PAWI Reporting Station
Light Snow Light Snow  
Wind Chill: -18°   Ceiling: 2000
Heat Index: -9°   Visibility: 4mi
Dew Point: -11°   Wind: 17mph
Humidity: 84%   Direction: 40°NE
Pressure: 29.99"   Gusts: NA
Location:  70.47°N, 157.4°W
Report Text: PAWI 220153Z AUTO 04015KT 4SM -SN BR OVC020 M09/M11 A2999 RMK AO2 SLP155 P0000 T10891111 TSNO
Loading
Personal Weather Stations






























Interactive Weather Map
Tropical Storm Tracking
New forecast layout! Learn more

10-Day Weather Forecast

Advertisements
Track Severe Weather on mobile